Auburn Township, Ohio
Current Conditions -  °F | °C
As of 10:38 PM on Saturday 25 Oct 2014 (Local Time) from KPOV Reporting Station
Clear Clear  
Wind Chill: 14°   Ceiling: Unl
Heat Index: 14°   Visibility: 10mi
Dew Point: -2°   Wind: 14mph
Humidity: 34%   Direction: 290°WNW
Pressure: 29.79"   Gusts: 23mph
Location:  41.2966°N, 81.2269°W
Report Text: KPOV 260238Z AUTO 29012G20KT 10SM CLR 14/M01 A2979 RMK AO2 T01421015
Loading
Personal Weather Stations






























Interactive Weather Map
Tropical Storm Tracking
New forecast layout! Learn more

10-Day Weather Forecast

Advertisements
Track Severe Weather on mobile